Wetterdaten: aktuell Sonntag, 19.11.2017 22:25
Datum Zeit Luft-Temp. Wasser Feuchte A. Luftdruck Regen Wind Richtung Richtung Windben
19.11.2017 22:25 3.8 C 9.4 C 97 % 1025.9 hPa 0.0 l/m 0.0 km/h (0 Bft) W-SW 243 0.0 km/h (0 Bft)
19.11.2017 21:25 3.8 C 9.4 C 97 % 1025.6 hPa 0.0 l/m 0.0 km/h (0 Bft) W-SW 243 0.0 km/h (0 Bft)
19.11.2017 20:25 3.4 C 9.4 C 97 % 1024.7 hPa 0.0 l/m 0.0 km/h (0 Bft) W-SW 243 0.0 km/h (0 Bft)
19.11.2017 19:25 4.6 C 9.4 C 97 % 1024.2 hPa 0.0 l/m 0.3 km/h (0 Bft) W-SW 243 5.8 km/h (2 Bft)
19.11.2017 18:25 4.7 C 9.4 C 95 % 1024.0 hPa 0.0 l/m 1.1 km/h (1 Bft) W-SW 244 5.8 km/h (2 Bft)
19.11.2017 17:25 4.6 C 9.4 C 95 % 1023.3 hPa 0.0 l/m 2.7 km/h (1 Bft) W-SW 245 7.2 km/h (2 Bft)
19.11.2017 16:25 5.3 C 10.0 C 88 % 1022.7 hPa 0.0 l/m 2.4 km/h (1 Bft) W 276 8.7 km/h (2 Bft)
19.11.2017 15:25 5.6 C 10.0 C 88 % 1022.1 hPa 0.0 l/m 12.7 km/h (3 Bft) NW 314 17.4 km/h (3 Bft)
19.11.2017 14:25 5.1 C 10.0 C 92 % 1021.8 hPa 0.0 l/m 18.3 km/h (3 Bft) W-NW 284 21.7 km/h (4 Bft)
19.11.2017 13:25 4.6 C 10.0 C 94 % 1021.8 hPa 0.0 l/m 7.1 km/h (2 Bft) N-NW 341 14.5 km/h (3 Bft)
19.11.2017 12:25 4.9 C 10.0 C 93 % 1021.6 hPa 0.0 l/m 18.7 km/h (3 Bft) N-NW 344 26.1 km/h (4 Bft)
19.11.2017 11:25 5.2 C 10.0 C 92 % 1021.3 hPa 0.0 l/m 8.5 km/h (2 Bft) SW 235 15.9 km/h (3 Bft)
19.11.2017 10:25 4.5 C 10.0 C 94 % 1020.7 hPa 0.0 l/m 14.5 km/h (3 Bft) W-NW 288 21.7 km/h (4 Bft)
19.11.2017 09:25 3.9 C 10.0 C 95 % 1020.7 hPa 0.0 l/m 14.9 km/h (3 Bft) W-SW 252 26.1 km/h (4 Bft)
19.11.2017 08:25 1.4 C 10.0 C 99 % 1020.1 hPa 0.0 l/m 0.0 km/h (0 Bft) N 0 0.0 km/h (0 Bft)
19.11.2017 07:25 1.4 C 10.0 C 99 % 1019.6 hPa 0.0 l/m 0.0 km/h (0 Bft) N 0 0.0 km/h (0 Bft)
19.11.2017 06:25 1.4 C 10.0 C 99 % 1020.4 hPa 0.0 l/m 0.0 km/h (0 Bft) N 0 0.0 km/h (0 Bft)
19.11.2017 05:30 1.4 C 10.0 C 99 % 1022.5 hPa 0.0 l/m 0.0 km/h (0 Bft) S 180 0.0 km/h (0 Bft)
19.11.2017 05:18 1.4 C 10.0 C 99 % 1022.5 hPa 0.0 l/m 0.0 km/h (0 Bft) S 180 0.0 km/h (0 Bft)
19.11.2017 05:06 1.4 C 10.0 C 99 % 1022.7 hPa 0.0 l/m 0.0 km/h (0 Bft) S 180 0.0 km/h (0 Bft)
19.11.2017 04:54 1.4 C 10.0 C 99 % 1022.7 hPa 0.0 l/m 0.0 km/h (0 Bft) S 180 0.0 km/h (0 Bft)
19.11.2017 04:42 1.4 C 10.0 C 99 % 1022.6 hPa 0.0 l/m 4.3 km/h (1 Bft) O-SO 112 9.7 km/h (2 Bft)
19.11.2017 04:30 1.6 C 10.0 C 99 % 1022.6 hPa 0.0 l/m 7.2 km/h (2 Bft) O-SO 112 11.3 km/h (2 Bft)
19.11.2017 04:18 1.9 C 10.0 C 99 % 1022.6 hPa 0.0 l/m 0.0 km/h (0 Bft) S 180 0.0 km/h (0 Bft)
19.11.2017 04:06 1.9 C 10.0 C 98 % 1022.7 hPa 0.0 l/m 8.7 km/h (2 Bft) O 90 12.9 km/h (3 Bft)
19.11.2017 03:54 2.1 C 10.0 C 98 % 1022.7 hPa 0.0 l/m 8.7 km/h (2 Bft) O-SO 112 12.9 km/h (3 Bft)
19.11.2017 03:42 2.3 C 10.0 C 97 % 1022.9 hPa 0.0 l/m 8.7 km/h (2 Bft) O-SO 112 12.9 km/h (3 Bft)
19.11.2017 03:30 2.9 C 10.0 C 96 % 1023.0 hPa 0.0 l/m 5.8 km/h (2 Bft) S-SO 157 11.3 km/h (2 Bft)
19.11.2017 03:18 2.9 C 10.0 C 94 % 1023.1 hPa 0.0 l/m 1.4 km/h (1 Bft) SO 135 4.8 km/h (1 Bft)
19.11.2017 03:06 3.1 C 10.0 C 93 % 1023.3 hPa 0.0 l/m 7.2 km/h (2 Bft) S 180 14.5 km/h (3 Bft)
19.11.2017 02:54 3.1 C 10.0 C 92 % 1023.5 hPa 0.0 l/m 5.8 km/h (2 Bft) S-SW 202 12.9 km/h (3 Bft)
19.11.2017 02:42 3.4 C 10.0 C 92 % 1023.6 hPa 0.0 l/m 7.2 km/h (2 Bft) S-SW 202 11.3 km/h (2 Bft)
19.11.2017 02:30 3.4 C 10.0 C 90 % 1023.6 hPa 0.0 l/m 5.8 km/h (2 Bft) S 180 19.3 km/h (3 Bft)
19.11.2017 02:18 3.6 C 10.0 C 88 % 1023.6 hPa 0.0 l/m 0.0 km/h (0 Bft) S 180 0.0 km/h (0 Bft)
19.11.2017 02:06 4.1 C 10.0 C 86 % 1023.7 hPa 0.0 l/m 7.2 km/h (2 Bft) SW 225 12.9 km/h (3 Bft)
19.11.2017 01:54 4.3 C 10.0 C 85 % 1023.7 hPa 0.0 l/m 7.2 km/h (2 Bft) S 180 11.3 km/h (2 Bft)
19.11.2017 01:42 4.3 C 10.0 C 85 % 1023.8 hPa 0.0 l/m 7.2 km/h (2 Bft) S-SO 157 12.9 km/h (3 Bft)
19.11.2017 01:30 4.2 C 10.0 C 85 % 1023.9 hPa 0.0 l/m 7.2 km/h (2 Bft) S-SW 202 12.9 km/h (3 Bft)
19.11.2017 01:18 4.2 C 10.0 C 85 % 1024.2 hPa 0.0 l/m 0.0 km/h (0 Bft) S 180 0.0 km/h (0 Bft)
19.11.2017 01:06 4.1 C 10.0 C 86 % 1024.4 hPa 0.0 l/m 5.8 km/h (2 Bft) W-NW 292 6.4 km/h (2 Bft)
19.11.2017 00:54 4.2 C 10.0 C 87 % 1024.6 hPa 0.0 l/m 0.0 km/h (0 Bft) S 180 0.0 km/h (0 Bft)
19.11.2017 00:42 4.2 C 10.0 C 85 % 1024.8 hPa 0.0 l/m 0.0 km/h (0 Bft) S 180 0.0 km/h (0 Bft)
19.11.2017 00:30 4.3 C 10.0 C 86 % 1024.9 hPa 0.0 l/m 0.0 km/h (0 Bft) W-NW 292 3.2 km/h (1 Bft)
19.11.2017 00:18 4.2 C 10.0 C 85 % 1025.1 hPa 0.0 l/m 4.3 km/h (1 Bft) W-NW 292 8.0 km/h (2 Bft)
19.11.2017 00:06 4.2 C 10.0 C 85 % 1025.0 hPa 0.0 l/m 0.0 km/h (0 Bft) W-NW 292 6.4 km/h (2 Bft)
18.11.2017 23:54 4.2 C 10.0 C 85 % 1024.8 hPa 0.0 l/m 4.3 km/h (1 Bft) S-SW 202 11.3 km/h (2 Bft)
18.11.2017 23:42 4.3 C 10.0 C 86 % 1025.0 hPa 0.0 l/m 0.0 km/h (0 Bft) S 180 0.0 km/h (0 Bft)
18.11.2017 23:30 4.3 C 10.0 C 86 % 1025.1 hPa 0.0 l/m 0.0 km/h (0 Bft) S 180 0.0 km/h (0 Bft)
18.11.2017 23:18 4.3 C 10.0 C 87 % 1025.2 hPa 0.0 l/m 0.0 km/h (0 Bft) S 180 0.0 km/h (0 Bft)
18.11.2017 23:06 4.3 C 10.0 C 85 % 1025.2 hPa 0.0 l/m 0.0 km/h (0 Bft) S 180 0.0 km/h (0 Bft)
18.11.2017 23:00 4.3 C 10.0 C 85 % 1025.3 hPa 0.0 l/m 0.0 km/h (0 Bft) S 180 0.0 km/h (0 Bft)
_ Min-Zeit 04:37 16:55 23:00 07:25 - 23:00 - - 23:00
Minimum _ 1.4 C 9.4 C 85 % 1019.6 hPa - 0.0 km/h (0 Bft) - - 0.0 km/h (0 Bft)
_ Max-Zeit 14:40 23:00 04:56 22:10 23:00 14:00 - - 14:00
Maximum _ 5.6 C 10.0 C 100 % 1026.0 hPa 0.0 l/m 24.3 km/h
NW (4 Bft)
- - 31.9 km/h
W-NW (5 Bft)
Durchschnitt _ 3.8 C 9.9 C 93 % 1022.9 hPa #0.0 l/m 5.0 km/h (1 Bft) W-NW - 7.9 km/h (2 Bft)